Time;durP1;ratioP1;P1;durP2;ratioP2;P2;SDS_P1;SDS_P2;PMS_P1;PMS_P2;Temp;Humidity;BMP_temperature;BMP_pressure;BME280_temperature;BME280_humidity;BME280_pressure;Samples;Min_cycle;Max_cycle;Signal;HPM_P1;HPM_P2
2022/07/01 00:01:46;;;;;;;2.83;1.30;;;16.80;99.90;;;;;;5137519;27;20134;-78
2022/07/01 00:04:11;;;;;;;3.45;1.35;;;16.80;99.90;;;;;;5137393;27;20043;-78
2022/07/01 00:06:37;;;;;;;3.20;1.23;;;16.90;99.90;;;;;;5137205;27;20150;-78
2022/07/01 00:09:04;;;;;;;4.40;1.17;;;16.80;99.90;;;;;;5137061;27;20423;-78
2022/07/01 00:11:30;;;;;;;2.95;1.17;;;16.80;99.90;;;;;;5137097;27;20047;-78
2022/07/01 00:13:56;;;;;;;4.57;1.20;;;16.80;99.90;;;;;;5137590;27;20046;-78
2022/07/01 00:16:22;;;;;;;4.30;1.47;;;16.80;99.90;;;;;;5137026;27;20035;-78
2022/07/01 00:18:47;;;;;;;4.53;1.30;;;16.80;99.90;;;;;;5136948;27;20039;-78
2022/07/01 00:21:14;;;;;;;3.33;1.17;;;16.80;99.90;;;;;;5137225;27;20050;-78
2022/07/01 00:23:40;;;;;;;3.97;1.40;;;16.60;99.90;;;;;;5136873;27;20050;-77
2022/07/01 00:26:06;;;;;;;3.38;1.30;;;16.80;99.90;;;;;;5136894;27;20055;-78
2022/07/01 00:28:32;;;;;;;2.20;1.33;;;17.10;99.90;;;;;;5136794;27;20483;-78
2022/07/01 00:30:57;;;;;;;4.37;1.67;;;16.80;99.90;;;;;;5136825;27;20471;-78
2022/07/01 00:33:23;;;;;;;3.00;1.30;;;16.70;99.90;;;;;;5136229;27;20105;-78
2022/07/01 00:35:48;;;;;;;1.77;1.00;;;16.70;99.90;;;;;;5118579;27;20042;-78
2022/07/01 00:38:14;;;;;;;2.37;1.27;;;16.70;99.90;;;;;;5136583;27;20043;-78
2022/07/01 00:40:40;;;;;;;2.47;1.30;;;16.60;99.90;;;;;;5136629;27;20117;-78
2022/07/01 00:43:05;;;;;;;3.67;1.10;;;16.70;99.90;;;;;;5136595;27;20039;-78
2022/07/01 00:45:31;;;;;;;2.67;1.07;;;16.60;99.90;;;;;;5136567;27;20047;-78
2022/07/01 00:47:57;;;;;;;3.83;1.10;;;16.70;99.90;;;;;;5136530;27;20061;-78
2022/07/01 00:50:23;;;;;;;5.13;1.30;;;16.60;99.90;;;;;;5136542;27;20039;-78
2022/07/01 00:52:48;;;;;;;3.47;1.20;;;16.60;99.90;;;;;;5136497;27;20043;-78
2022/07/01 00:55:15;;;;;;;4.83;1.70;;;16.90;99.90;;;;;;5136469;27;20357;-78
2022/07/01 00:57:43;;;;;;;4.05;1.27;;;16.40;99.90;;;;;;5136108;27;20062;-78
2022/07/01 01:00:15;;;;;;;2.58;1.10;;;16.50;99.90;;;;;;5136203;27;20039;-78
2022/07/01 01:02:41;;;;;;;2.70;1.25;;;16.70;99.90;;;;;;5135832;27;20497;-78
2022/07/01 01:05:08;;;;;;;1.93;1.20;;;16.70;99.90;;;;;;5136095;27;20043;-78
2022/07/01 01:07:34;;;;;;;3.65;1.10;;;16.70;99.90;;;;;;5136348;27;20054;-78
2022/07/01 01:10:01;;;;;;;2.78;1.15;;;16.70;99.90;;;;;;5135908;27;20112;-78
2022/07/01 01:12:27;;;;;;;2.05;0.93;;;16.80;99.90;;;;;;5135964;27;20043;-78
2022/07/01 01:14:53;;;;;;;2.03;1.00;;;16.70;99.90;;;;;;5135915;27;20050;-78
2022/07/01 01:17:21;;;;;;;2.00;1.00;;;16.50;99.90;;;;;;5135869;27;20273;-78
2022/07/01 01:19:48;;;;;;;3.53;1.00;;;16.60;99.90;;;;;;5135503;27;20487;-78
2022/07/01 01:22:16;;;;;;;2.17;0.90;;;16.70;99.90;;;;;;5135488;27;20421;-78
2022/07/01 01:24:42;;;;;;;3.25;1.00;;;16.70;99.90;;;;;;5135647;27;20532;-78
2022/07/01 01:27:08;;;;;;;2.67;0.95;;;16.70;99.90;;;;;;5135703;27;20176;-78
2022/07/01 01:29:36;;;;;;;2.87;0.97;;;16.90;99.90;;;;;;5135650;27;20527;-77
2022/07/01 01:32:05;;;;;;;2.25;0.90;;;16.60;99.90;;;;;;5135533;27;20081;-77
2022/07/01 01:34:32;;;;;;;1.60;0.90;;;16.70;99.90;;;;;;5135418;27;20039;-77
2022/07/01 01:36:59;;;;;;;2.28;0.80;;;16.40;99.90;;;;;;5135500;27;20035;-77
2022/07/01 01:39:24;;;;;;;1.40;0.90;;;16.80;99.90;;;;;;5135304;27;20386;-77
2022/07/01 01:41:50;;;;;;;4.03;0.80;;;16.80;99.90;;;;;;5135840;27;20122;-77
2022/07/01 01:44:16;;;;;;;1.73;0.80;;;16.90;99.90;;;;;;5135402;27;20489;-77
2022/07/01 01:46:42;;;;;;;3.53;0.90;;;16.90;99.90;;;;;;5134273;27;20089;-77
2022/07/01 01:49:08;;;;;;;3.60;0.80;;;16.90;99.90;;;;;;5135259;27;20044;-77
2022/07/01 01:51:34;;;;;;;2.93;1.00;;;17.30;99.90;;;;;;5135227;27;20047;-77
2022/07/01 01:53:59;;;;;;;1.77;0.93;;;16.90;99.90;;;;;;5134860;27;20087;-77
2022/07/01 01:56:26;;;;;;;1.20;0.80;;;17.30;99.90;;;;;;5135152;27;20187;-77
2022/07/01 01:58:52;;;;;;;2.88;0.90;;;16.80;99.90;;;;;;5116770;27;20442;-77
2022/07/01 02:01:18;;;;;;;1.70;0.90;;;16.80;99.90;;;;;;5135368;27;20071;-77
2022/07/01 02:03:44;;;;;;;;;;;16.90;99.90;;;;;;5135489;27;20047;-77
2022/07/01 02:06:11;;;;;;;2.15;0.98;;;16.70;99.90;;;;;;5134807;27;19927;-77
2022/07/01 02:08:37;;;;;;;2.08;1.10;;;16.70;99.90;;;;;;5134933;27;20407;-77
2022/07/01 02:11:04;;;;;;;1.65;0.93;;;16.60;99.90;;;;;;5134625;27;20474;-77
2022/07/01 02:13:29;;;;;;;3.20;1.30;;;16.60;99.90;;;;;;5134943;27;20046;-77
2022/07/01 02:15:56;;;;;;;3.70;1.73;;;16.60;99.90;;;;;;5134863;27;20475;-77
2022/07/01 02:18:22;;;;;;;3.47;1.65;;;16.50;99.90;;;;;;5134806;27;20122;-77
2022/07/01 02:20:48;;;;;;;4.60;2.80;;;16.50;99.90;;;;;;5134812;27;20043;-77
2022/07/01 02:23:14;;;;;;;5.80;5.10;;;16.50;99.90;;;;;;5134738;27;20127;-77
2022/07/01 02:25:40;;;;;;;6.43;5.13;;;16.30;99.90;;;;;;5135007;27;20046;-77
2022/07/01 02:28:06;;;;;;;9.60;8.60;;;16.50;99.90;;;;;;5134731;27;20047;-77
2022/07/01 02:30:35;;;;;;;11.23;9.97;;;16.50;99.90;;;;;;5134721;28;20479;-77
2022/07/01 02:33:00;;;;;;;13.82;12.45;;;16.40;99.90;;;;;;5134662;28;20047;-77
2022/07/01 02:35:26;;;;;;;15.23;13.73;;;16.40;99.90;;;;;;5134698;28;20100;-77
2022/07/01 02:37:52;;;;;;;14.87;13.47;;;16.50;99.90;;;;;;5134574;28;20494;-77
2022/07/01 02:40:17;;;;;;;14.80;13.30;;;16.50;99.90;;;;;;5134676;28;20046;-77
2022/07/01 02:42:43;;;;;;;16.47;14.47;;;16.50;99.90;;;;;;5134629;28;20082;-77
2022/07/01 02:45:08;;;;;;;15.40;13.80;;;16.00;99.90;;;;;;5134873;28;20482;-77
2022/07/01 02:47:35;;;;;;;15.93;13.43;;;16.20;99.90;;;;;;5134523;28;20054;-77
2022/07/01 02:50:06;;;;;;;18.33;14.50;;;16.20;99.90;;;;;;5134533;28;20148;-77
2022/07/01 02:52:34;;;;;;;14.98;13.43;;;16.20;99.90;;;;;;5134520;28;20058;-77
2022/07/01 02:55:00;;;;;;;13.32;11.90;;;16.10;99.90;;;;;;5134492;28;20035;-77
2022/07/01 02:57:26;;;;;;;14.52;13.10;;;16.30;99.90;;;;;;5136711;27;20039;-77
2022/07/01 02:59:51;;;;;;;14.27;12.87;;;16.20;99.90;;;;;;5120236;27;20043;-77
2022/07/01 03:02:18;;;;;;;12.97;11.63;;;16.60;99.90;;;;;;5138449;27;20035;-77
2022/07/01 03:04:44;;;;;;;15.70;12.98;;;16.20;99.90;;;;;;5138444;27;20039;-77
2022/07/01 03:07:10;;;;;;;11.90;10.70;;;16.20;99.90;;;;;;5137968;27;20050;-77
2022/07/01 03:09:36;;;;;;;15.53;13.90;;;15.80;99.90;;;;;;5138387;27;20086;-77
2022/07/01 03:12:24;;;;;;;15.87;13.70;;;16.20;99.90;;;;;;5138355;27;20092;-77
2022/07/01 03:14:57;;;;;;;12.75;10.18;;;16.20;99.90;;;;;;5138336;27;20482;-77
2022/07/01 03:17:24;;;;;;;13.63;11.23;;;16.20;99.90;;;;;;5138315;27;20039;-77
2022/07/01 03:19:51;;;;;;;11.90;10.70;;;16.10;99.90;;;;;;5137980;27;20475;-77
2022/07/01 03:22:17;;;;;;;12.32;11.10;;;16.10;99.90;;;;;;5138085;27;20043;-77
2022/07/01 03:24:42;;;;;;;13.40;11.37;;;16.20;99.90;;;;;;5138073;27;20050;-77
2022/07/01 03:27:08;;;;;;;12.80;11.53;;;16.10;99.90;;;;;;5138122;27;20043;-77
2022/07/01 03:29:34;;;;;;;12.77;10.90;;;15.90;99.90;;;;;;5137987;27;20043;-77
2022/07/01 03:32:00;;;;;;;10.17;9.17;;;15.90;99.90;;;;;;5137929;27;20096;-77
2022/07/01 03:34:25;;;;;;;11.83;9.83;;;15.90;99.90;;;;;;5137900;27;20050;-77
2022/07/01 03:36:51;;;;;;;12.43;10.07;;;15.80;99.90;;;;;;5138316;27;20031;-77
2022/07/01 03:39:16;;;;;;;10.93;9.53;;;15.80;99.90;;;;;;5137783;27;20096;-77
2022/07/01 03:41:42;;;;;;;13.10;9.77;;;15.80;99.90;;;;;;5137776;27;20099;-77
2022/07/01 03:44:07;;;;;;;11.15;9.93;;;15.80;99.90;;;;;;5137717;27;20471;-77
2022/07/01 03:46:35;;;;;;;11.57;10.48;;;15.80;99.90;;;;;;5137683;27;20051;-77
2022/07/01 03:49:01;;;;;;;12.15;10.82;;;15.80;99.90;;;;;;5137552;27;20043;-77
2022/07/01 03:51:27;;;;;;;12.30;11.07;;;15.80;99.90;;;;;;5137989;27;20394;-77
2022/07/01 03:56:36;;;;;;;15.80;11.73;;;15.70;99.90;;;;;;5137445;27;20055;-77
2022/07/01 03:59:02;;;;;;;16.17;13.43;;;15.80;99.90;;;;;;5137255;27;20039;-77
2022/07/01 04:01:27;;;;;;;17.50;15.37;;;15.80;99.90;;;;;;5137082;27;20096;-77
2022/07/01 04:03:53;;;;;;;15.43;13.53;;;16.30;99.90;;;;;;5137617;27;20043;-77
2022/07/01 04:06:19;;;;;;;15.60;13.98;;;15.60;99.90;;;;;;5137095;27;20043;-77
2022/07/01 04:08:46;;;;;;;17.00;15.20;;;15.60;99.90;;;;;;5136345;27;20042;-77
2022/07/01 04:11:12;;;;;;;16.30;14.50;;;15.70;99.90;;;;;;5137240;27;20471;-77
2022/07/01 04:13:38;;;;;;;17.50;15.70;;;15.80;99.90;;;;;;5137141;27;20039;-77
2022/07/01 04:16:04;;;;;;;18.63;15.83;;;15.60;99.90;;;;;;5137114;27;20200;-77
2022/07/01 04:18:30;;;;;;;18.23;16.25;;;15.70;99.90;;;;;;5137012;27;20387;-77
2022/07/01 04:23:40;;;;;;;19.80;17.17;;;15.60;99.90;;;;;;5137201;27;20047;-77
2022/07/01 04:26:06;;;;;;;21.13;18.93;;;15.40;99.90;;;;;;5136874;27;20447;-77
2022/07/01 04:28:31;;;;;;;22.47;18.83;;;15.60;99.90;;;;;;5136924;27;20042;-77
2022/07/01 04:30:57;;;;;;;22.40;19.73;;;15.80;99.90;;;;;;5136830;27;20081;-77
2022/07/01 04:33:23;;;;;;;22.63;20.20;;;15.60;99.90;;;;;;5136804;27;20046;-77
2022/07/01 04:35:48;;;;;;;22.27;19.00;;;15.40;99.90;;;;;;5137140;27;20043;-77
2022/07/01 04:38:14;;;;;;;24.20;20.33;;;15.70;99.90;;;;;;5136644;27;20087;-77
2022/07/01 04:40:39;;;;;;;20.55;18.40;;;15.50;99.90;;;;;;5136681;27;20051;-77
2022/07/01 04:43:05;;;;;;;23.80;19.63;;;16.10;99.90;;;;;;5136623;27;20078;-77
2022/07/01 04:45:30;;;;;;;20.13;18.03;;;15.40;99.90;;;;;;5136499;27;20364;-77
2022/07/01 04:47:56;;;;;;;23.70;21.17;;;16.00;99.90;;;;;;5136452;27;20047;-81
2022/07/01 04:50:22;;;;;;;24.90;21.93;;;15.60;99.90;;;;;;5136462;27;20039;-78
2022/07/01 04:52:47;;;;;;;23.70;21.23;;;15.50;99.90;;;;;;5136386;27;20096;-77
2022/07/01 04:55:13;;;;;;;23.17;20.67;;;15.70;99.90;;;;;;5136373;27;20403;-77
2022/07/01 04:57:39;;;;;;;23.20;20.73;;;15.50;99.90;;;;;;5136269;27;20039;-78
2022/07/01 05:00:05;;;;;;;24.52;22.02;;;15.50;99.90;;;;;;5136089;27;20516;-77
2022/07/01 05:02:30;;;;;;;23.05;20.55;;;15.50;99.90;;;;;;5136135;27;20126;-77
2022/07/01 05:04:56;;;;;;;23.60;21.20;;;15.70;99.90;;;;;;5136168;27;20082;-79
2022/07/01 05:07:27;;;;;;;24.10;21.60;;;15.30;99.90;;;;;;5136086;27;20531;-78
2022/07/01 05:09:54;;;;;;;23.02;20.58;;;15.30;99.90;;;;;;5136247;27;20039;-80
2022/07/01 05:12:19;;;;;;;24.88;21.70;;;15.40;99.90;;;;;;5135986;27;20039;-78
2022/07/01 05:14:45;;;;;;;24.57;19.67;;;15.20;99.90;;;;;;5135900;27;20467;-79
2022/07/01 05:17:10;;;;;;;23.10;20.83;;;15.10;99.90;;;;;;5135873;27;20039;-78
2022/07/01 05:22:20;;;;;;;26.48;22.92;;;16.00;99.90;;;;;;5135615;27;20133;-78
2022/07/01 05:24:46;;;;;;;25.87;23.17;;;15.50;99.90;;;;;;5135712;27;20450;-79
2022/07/01 05:27:12;;;;;;;25.95;22.65;;;15.80;99.90;;;;;;5135729;27;20042;-78
2022/07/01 05:29:37;;;;;;;24.58;21.95;;;15.50;99.90;;;;;;5135671;27;20035;-77
2022/07/01 05:32:03;;;;;;;26.00;22.73;;;15.50;99.90;;;;;;5135624;27;20111;-79
2022/07/01 05:34:29;;;;;;;26.27;22.48;;;15.60;99.90;;;;;;5135728;27;20043;-77
2022/07/01 05:36:54;;;;;;;23.07;20.70;;;15.60;99.90;;;;;;5135544;27;20467;-79
2022/07/01 05:39:20;;;;;;;26.07;23.20;;;16.00;99.90;;;;;;5135401;27;20043;-79
2022/07/01 05:41:45;;;;;;;27.15;23.75;;;15.70;99.90;;;;;;5117103;27;20467;-79
2022/07/01 05:44:11;;;;;;;27.40;23.45;;;16.30;99.90;;;;;;5135352;27;20105;-79
2022/07/01 05:46:37;;;;;;;25.47;22.87;;;15.90;99.90;;;;;;5135827;27;20047;-80
2022/07/01 05:49:03;;;;;;;24.10;21.70;;;16.00;99.90;;;;;;5135285;27;20499;-79
2022/07/01 05:51:28;;;;;;;27.47;24.57;;;16.60;99.90;;;;;;5135315;27;20046;-79
2022/07/01 05:53:56;;;;;;;24.33;21.83;;;15.90;99.90;;;;;;5135556;27;20047;-81
2022/07/01 05:56:22;;;;;;;24.73;22.15;;;15.70;99.90;;;;;;5153503;27;20051;-82
2022/07/01 05:58:47;;;;;;;26.27;23.57;;;16.00;99.90;;;;;;5156338;27;20047;-82
2022/07/01 06:01:14;;;;;;;23.92;21.35;;;16.60;99.90;;;;;;5155789;27;20398;-80
2022/07/01 06:03:40;;;;;;;25.05;22.45;;;15.80;99.90;;;;;;5155799;27;20520;-81
2022/07/01 06:06:05;;;;;;;24.30;21.93;;;16.90;99.90;;;;;;5103294;27;20051;-81
2022/07/01 06:08:32;;;;;;;25.27;22.80;;;15.70;99.90;;;;;;5155775;27;20141;-79
2022/07/01 06:10:57;;;;;;;23.20;20.83;;;15.40;99.90;;;;;;5155842;27;20046;-79
2022/07/01 06:13:23;;;;;;;22.97;20.60;;;15.90;99.90;;;;;;5155455;27;20141;-79
2022/07/01 06:15:49;;;;;;;23.90;21.33;;;15.60;99.90;;;;;;5155640;27;20035;-79
2022/07/01 06:18:14;;;;;;;23.63;21.23;;;16.30;99.90;;;;;;5155512;27;20042;-79
2022/07/01 06:20:40;;;;;;;21.13;18.93;;;16.00;99.90;;;;;;5155685;27;20122;-80
2022/07/01 06:23:05;;;;;;;23.67;21.27;;;16.00;99.90;;;;;;5155887;27;20130;-80
2022/07/01 06:25:31;;;;;;;23.80;21.27;;;16.60;99.90;;;;;;5155725;27;20043;-81
2022/07/01 06:27:57;;;;;;;23.70;21.37;;;16.40;99.90;;;;;;5155348;27;20046;-80
2022/07/01 06:30:22;;;;;;;22.97;20.67;;;16.80;99.90;;;;;;5155504;27;20679;-81
2022/07/01 06:32:48;;;;;;;23.77;20.48;;;16.90;99.90;;;;;;5154903;27;20117;-80
2022/07/01 06:35:13;;;;;;;21.73;19.47;;;16.30;99.90;;;;;;5155405;27;20043;-80
2022/07/01 06:37:39;;;;;;;23.87;21.27;;;16.30;99.90;;;;;;5155416;27;20058;-80
2022/07/01 06:40:06;;;;;;;20.90;18.70;;;16.90;99.90;;;;;;5155287;27;20046;-79
2022/07/01 06:42:33;;;;;;;21.52;19.30;;;16.70;99.90;;;;;;5150765;27;20039;-79
2022/07/01 06:44:59;;;;;;;23.23;20.85;;;17.00;99.90;;;;;;5143298;27;20059;-79
2022/07/01 06:47:25;;;;;;;25.07;22.47;;;17.30;99.90;;;;;;5134530;28;20495;-80
2022/07/01 06:49:50;;;;;;;23.43;21.03;;;16.80;99.90;;;;;;5144813;27;20439;-79
2022/07/01 06:52:16;;;;;;;23.20;20.80;;;17.40;99.90;;;;;;5155385;27;20042;-77
2022/07/01 06:54:42;;;;;;;23.73;21.43;;;17.60;99.90;;;;;;5155200;27;20043;-78
2022/07/01 06:57:08;;;;;;;24.47;22.07;;;16.60;99.90;;;;;;5155123;27;20471;-86
2022/07/01 06:59:34;;;;;;;25.77;23.17;;;16.60;99.90;;;;;;5155093;27;20043;-76
2022/07/01 07:02:00;;;;;;;23.67;21.27;;;17.40;99.90;;;;;;5155166;27;20047;-78
2022/07/01 07:04:25;;;;;;;21.63;19.33;;;16.40;99.90;;;;;;5154841;27;20075;-79
2022/07/01 07:06:51;;;;;;;23.53;21.23;;;17.30;99.90;;;;;;5119448;27;20123;-76
2022/07/01 07:09:17;;;;;;;26.33;19.50;;;16.90;99.90;;;;;;5155093;27;20385;-77
2022/07/01 07:11:43;;;;;;;24.47;21.93;;;16.60;99.90;;;;;;5155018;27;20058;-77
2022/07/01 07:14:08;;;;;;;23.10;20.60;;;17.00;99.90;;;;;;5154615;27;20125;-77
2022/07/01 07:16:34;;;;;;;24.00;21.60;;;17.10;99.90;;;;;;5154713;27;20104;-77
2022/07/01 07:18:59;;;;;;;23.67;21.03;;;16.40;99.90;;;;;;5153678;27;20122;-77
2022/07/01 07:21:25;;;;;;;23.60;21.10;;;17.00;99.90;;;;;;5155164;27;20043;-76
2022/07/01 07:23:50;;;;;;;22.55;20.23;;;16.40;99.90;;;;;;5154863;27;20493;-76
2022/07/01 07:26:16;;;;;;;25.17;22.67;;;16.40;99.90;;;;;;5154933;27;20390;-76
2022/07/01 07:28:42;;;;;;;23.88;21.38;;;16.50;99.90;;;;;;5154812;27;20035;-77
2022/07/01 07:31:07;;;;;;;25.87;23.37;;;16.20;99.90;;;;;;5155284;27;20039;-76
2022/07/01 07:33:33;;;;;;;25.57;22.97;;;16.20;99.90;;;;;;5154836;27;20046;-77
2022/07/01 07:35:59;;;;;;;26.03;21.83;;;16.60;99.90;;;;;;5154784;27;20130;-77
2022/07/01 07:38:24;;;;;;;23.97;21.37;;;16.70;99.90;;;;;;5154479;27;20127;-77
2022/07/01 07:40:50;;;;;;;23.20;20.92;;;16.50;99.90;;;;;;5154819;27;20046;-75
2022/07/01 07:43:15;;;;;;;23.43;21.10;;;16.40;99.90;;;;;;5154620;27;20478;-76
2022/07/01 07:45:41;;;;;;;22.92;20.02;;;17.50;99.90;;;;;;5158420;27;20039;-77
2022/07/01 07:48:08;;;;;;;25.67;21.83;;;16.80;99.90;;;;;;5158419;27;20045;-77
2022/07/01 07:50:34;;;;;;;23.73;21.30;;;16.60;99.90;;;;;;5158377;27;20176;-76
2022/07/01 07:53:00;;;;;;;21.30;19.02;;;17.00;99.90;;;;;;5158392;27;20099;-76
2022/07/01 07:55:25;;;;;;;23.80;21.27;;;17.10;99.90;;;;;;5158298;27;20558;-77
2022/07/01 07:57:51;;;;;;;22.60;20.03;;;17.00;99.90;;;;;;5158152;27;20047;-77
2022/07/01 08:00:17;;;;;;;23.53;21.13;;;17.20;99.90;;;;;;5158600;27;20390;-76
2022/07/01 08:02:43;;;;;;;23.40;20.20;;;17.60;99.90;;;;;;5158153;27;20470;-77
2022/07/01 08:05:09;;;;;;;21.00;18.90;;;18.10;99.90;;;;;;5158096;27;20532;-77
2022/07/01 08:07:39;;;;;;;22.10;19.65;;;17.60;99.90;;;;;;5158065;27;20058;-77
2022/07/01 08:10:07;;;;;;;21.77;19.15;;;17.70;99.90;;;;;;5158059;27;20053;-77
2022/07/01 08:12:33;;;;;;;21.50;18.83;;;17.80;99.90;;;;;;5157560;27;20487;-77
2022/07/01 08:15:00;;;;;;;22.15;17.83;;;17.80;99.90;;;;;;5157919;27;20046;-76
2022/07/01 08:17:26;;;;;;;19.65;17.40;;;17.70;99.90;;;;;;5157872;27;20103;-77
2022/07/01 08:19:52;;;;;;;21.43;17.57;;;18.10;99.90;;;;;;5157727;27;20458;-77
2022/07/01 08:22:17;;;;;;;20.97;17.03;;;18.20;99.90;;;;;;5157750;27;20126;-77
2022/07/01 08:24:43;;;;;;;18.93;16.90;;;18.60;99.90;;;;;;5157731;27;20468;-77
2022/07/01 08:27:09;;;;;;;19.97;16.60;;;17.90;99.90;;;;;;5157631;27;20046;-77
2022/07/01 08:29:35;;;;;;;17.90;15.43;;;18.10;99.90;;;;;;5158012;27;20035;-77
2022/07/01 08:32:01;;;;;;;19.17;17.02;;;18.10;99.90;;;;;;5157961;27;20047;-77
2022/07/01 08:34:26;;;;;;;21.30;17.37;;;18.10;99.90;;;;;;5157480;27;20043;-77
2022/07/01 08:36:52;;;;;;;19.57;16.50;;;19.00;99.90;;;;;;5157629;27;20627;-77
2022/07/01 08:39:18;;;;;;;19.33;15.03;;;18.30;99.90;;;;;;5157320;27;20049;-77
2022/07/01 08:41:43;;;;;;;18.87;15.50;;;18.80;99.90;;;;;;5157283;27;20049;-77
2022/07/01 08:44:09;;;;;;;15.87;14.07;;;19.10;99.90;;;;;;5157311;27;20058;-77
2022/07/01 08:46:35;;;;;;;15.20;13.00;;;18.90;99.90;;;;;;5157246;27;20091;-77
2022/07/01 08:49:02;;;;;;;18.23;14.00;;;19.70;99.90;;;;;;5157271;27;20276;-76
2022/07/01 08:51:28;;;;;;;14.80;12.70;;;19.30;99.90;;;;;;5157178;27;20049;-76
2022/07/01 08:53:53;;;;;;;14.00;12.47;;;19.40;99.90;;;;;;5157141;27;20489;-77
2022/07/01 08:59:05;;;;;;;16.73;11.80;;;19.50;99.90;;;;;;5157384;27;20104;-77
2022/07/01 09:01:32;;;;;;;12.82;11.52;;;19.70;99.90;;;;;;5157057;27;20394;-76
2022/07/01 09:04:14;;;;;;;14.80;12.25;;;19.90;99.90;;;;;;5156888;27;20038;-77
2022/07/01 09:06:40;;;;;;;17.05;12.00;;;19.80;99.90;;;;;;5156431;27;20146;-77
2022/07/01 09:09:21;;;;;;;14.70;10.60;;;19.90;99.90;;;;;;5156521;27;20478;-77
2022/07/01 09:11:54;;;;;;;15.88;10.57;;;20.60;99.90;;;;;;5156719;27;20039;-76
2022/07/01 09:14:22;;;;;;;12.65;9.65;;;20.20;99.90;;;;;;5157186;27;20047;-76
2022/07/01 09:16:51;;;;;;;12.15;9.05;;;20.20;99.90;;;;;;5156640;27;20107;-78
2022/07/01 09:19:18;;;;;;;12.95;9.30;;;20.50;99.90;;;;;;5156494;27;20175;-77
2022/07/01 09:22:00;;;;;;;13.30;9.07;;;20.60;99.90;;;;;;5156756;27;20535;-77
2022/07/01 09:24:29;;;;;;;14.63;8.35;;;21.10;99.90;;;;;;5156801;27;20047;-77
2022/07/01 09:26:56;;;;;;;10.45;8.57;;;20.40;99.90;;;;;;5156706;27;20043;-78
2022/07/01 09:29:27;;;;;;;15.32;8.60;;;20.40;99.90;;;;;;5156275;27;20478;-77
2022/07/01 09:31:53;;;;;;;12.15;7.40;;;20.50;99.90;;;;;;5156046;27;20039;-77
2022/07/01 09:34:18;;;;;;;8.20;6.67;;;20.20;99.90;;;;;;5156766;27;20130;-77
2022/07/01 09:36:55;;;;;;;11.07;7.80;;;20.60;99.90;;;;;;5156291;27;20153;-77
2022/07/01 09:39:20;;;;;;;11.15;8.02;;;20.00;99.90;;;;;;5156554;27;20359;-77
2022/07/01 09:41:46;;;;;;;10.13;7.70;;;20.00;99.90;;;;;;5156126;27;20087;-77
2022/07/01 09:44:11;;;;;;;11.47;8.83;;;20.00;99.90;;;;;;5156133;27;20046;-78
2022/07/01 09:46:37;;;;;;;15.33;8.43;;;20.40;99.90;;;;;;5155914;27;20039;-78
2022/07/01 09:49:03;;;;;;;12.43;8.03;;;20.00;99.90;;;;;;5137527;27;20121;-77
2022/07/01 09:51:31;;;;;;;9.98;7.28;;;20.40;99.90;;;;;;5156029;27;20043;-78
2022/07/01 09:53:57;;;;;;;10.05;8.00;;;19.80;99.90;;;;;;5156000;27;20127;-79
2022/07/01 09:56:23;;;;;;;12.77;8.27;;;20.50;99.90;;;;;;5155928;27;20081;-77
2022/07/01 09:58:49;;;;;;;12.38;7.40;;;20.50;99.90;;;;;;5155790;27;20549;-78
2022/07/01 10:01:16;;;;;;;10.30;6.25;;;20.10;99.90;;;;;;5155718;27;20046;-78
2022/07/01 10:03:43;;;;;;;10.68;5.78;;;20.40;99.90;;;;;;5155864;27;20035;-77
2022/07/01 10:06:17;;;;;;;9.27;6.70;;;20.40;99.90;;;;;;5155017;27;20130;-77
2022/07/01 10:08:53;;;;;;;13.73;6.78;;;20.00;99.90;;;;;;5156005;27;20055;-77
2022/07/01 10:11:27;;;;;;;9.18;5.60;;;20.10;99.90;;;;;;5155847;27;20047;-77
2022/07/01 10:13:54;;;;;;;7.72;5.63;;;20.00;99.90;;;;;;5155248;27;20502;-77
2022/07/01 10:16:20;;;;;;;;;;;20.60;99.90;;;;;;5137750;27;20079;-77
2022/07/01 10:18:45;;;;;;;9.90;4.90;;;20.80;99.90;;;;;;5155592;27;20271;-77
2022/07/01 10:21:29;;;;;;;9.13;5.90;;;20.60;99.90;;;;;;5155700;27;20039;-77
2022/07/01 10:24:14;;;;;;;9.63;5.90;;;20.40;99.90;;;;;;5155574;27;20129;-77
2022/07/01 10:26:41;;;;;;;9.82;6.35;;;20.50;99.90;;;;;;5155943;27;20098;-77
2022/07/01 10:29:35;;;;;;;12.10;6.55;;;20.90;99.90;;;;;;5155845;27;20038;-77
2022/07/01 10:32:21;;;;;;;9.32;6.03;;;20.80;99.90;;;;;;5155419;27;20042;-77
2022/07/01 10:34:46;;;;;;;8.77;5.18;;;21.50;99.90;;;;;;5154729;27;20046;-77
2022/07/01 10:37:13;;;;;;;6.77;4.87;;;21.20;99.90;;;;;;5155411;27;20035;-77
2022/07/01 10:39:54;;;;;;;9.43;5.05;;;21.50;99.90;;;;;;5137350;27;20371;-77
2022/07/01 10:42:20;;;;;;;8.77;4.95;;;21.70;99.90;;;;;;5155603;27;20372;-77
2022/07/01 10:45:17;;;;;;;9.27;4.87;;;21.50;99.90;;;;;;5155269;27;20064;-77
2022/07/01 10:47:43;;;;;;;7.95;4.38;;;21.50;99.90;;;;;;5134666;27;20058;-77
2022/07/01 10:50:15;;;;;;;6.57;4.47;;;21.80;99.90;;;;;;5155325;27;20039;-80
2022/07/01 10:53:02;;;;;;;6.97;4.10;;;21.80;99.90;;;;;;5155329;27;20099;-80
2022/07/01 10:55:38;;;;;;;8.10;4.55;;;21.20;99.90;;;;;;5155090;27;20046;-77
2022/07/01 10:58:04;;;;;;;7.17;4.27;;;21.20;99.90;;;;;;5155101;27;20043;-81
2022/07/01 11:00:32;;;;;;;8.43;4.47;;;21.60;99.90;;;;;;5155163;27;20771;-77
2022/07/01 11:03:08;;;;;;;4.93;3.90;;;21.50;99.90;;;;;;5155145;27;20060;-80
2022/07/01 11:05:36;;;;;;;6.40;3.57;;;21.80;99.90;;;;;;5155282;27;20089;-80
2022/07/01 11:08:02;;;;;;;6.50;3.40;;;21.90;99.90;;;;;;5155049;27;20046;-78
2022/07/01 11:10:27;;;;;;;6.20;3.53;;;22.00;99.90;;;;;;5155046;27;20038;-77
2022/07/01 11:12:53;;;;;;;5.40;3.40;;;22.20;99.90;;;;;;5155109;27;20050;-78
2022/07/01 11:15:20;;;;;;;5.03;3.20;;;22.20;99.90;;;;;;5154998;27;20474;-79
2022/07/01 11:17:47;;;;;;;6.93;3.50;;;22.00;99.90;;;;;;5155597;27;20125;-77
2022/07/01 11:20:13;;;;;;;6.22;3.28;;;22.10;99.90;;;;;;5158938;27;20038;-77
2022/07/01 11:22:39;;;;;;;7.10;3.20;;;22.00;99.90;;;;;;5158808;27;20051;-78
2022/07/01 11:25:08;;;;;;;4.53;2.85;;;21.90;99.90;;;;;;5158807;27;20039;-78
2022/07/01 11:27:34;;;;;;;5.70;3.00;;;22.10;99.90;;;;;;5158790;27;20043;-81
2022/07/01 11:30:11;;;;;;;5.43;2.97;;;22.10;99.90;;;;;;5158709;27;20083;-79
2022/07/01 11:32:42;;;;;;;8.32;2.85;;;22.20;99.90;;;;;;5158765;27;20047;-79
2022/07/01 11:40:47;;;;;;;5.88;3.25;;;22.50;99.90;;;;;;5158043;27;20050;-80
2022/07/01 11:43:25;;;;;;;7.53;3.10;;;22.50;99.90;;;;;;5157083;27;20382;-81
2022/07/01 11:45:51;;;;;;;6.65;3.05;;;22.60;99.90;;;;;;5122995;27;20050;-82
2022/07/01 11:48:35;;;;;;;6.05;2.63;;;22.80;99.90;;;;;;5140156;27;20046;-81
2022/07/01 11:51:04;;;;;;;6.57;2.60;;;22.80;99.90;;;;;;5140153;27;20113;-82
2022/07/01 11:53:30;;;;;;;6.38;2.70;;;22.60;99.90;;;;;;5140058;27;20042;-84
2022/07/01 11:55:56;;;;;;;6.10;2.53;;;22.60;99.90;;;;;;5158241;27;20195;-84
2022/07/01 11:58:22;;;;;;;5.70;2.63;;;22.90;99.90;;;;;;5139653;27;20038;-84
2022/07/01 12:00:48;;;;;;;6.43;2.83;;;22.90;99.90;;;;;;5140071;27;20047;-85
2022/07/01 12:03:29;;;;;;;10.23;3.30;;;23.00;99.90;;;;;;5139597;27;20527;-82
2022/07/01 12:05:55;;;;;;;5.53;2.83;;;22.80;99.90;;;;;;5157864;27;20079;-81
2022/07/01 12:08:21;;;;;;;6.60;2.50;;;22.90;99.90;;;;;;5139825;27;20390;-85
2022/07/01 12:10:47;;;;;;;4.93;2.07;;;23.20;99.90;;;;;;5122506;27;20130;-82
2022/07/01 12:13:23;;;;;;;6.60;2.33;;;23.20;99.90;;;;;;5139348;27;20050;-84
2022/07/01 12:15:49;;;;;;;5.03;2.07;;;23.20;99.90;;;;;;5157792;27;20047;-80
2022/07/01 12:18:16;;;;;;;4.00;1.87;;;23.20;99.90;;;;;;5158093;27;20280;-78
2022/07/01 12:20:53;;;;;;;5.30;1.98;;;23.20;99.90;;;;;;5157758;27;20118;-77
2022/07/01 12:23:19;;;;;;;5.57;1.88;;;23.20;99.90;;;;;;5156836;27;20066;-77
2022/07/01 12:25:50;;;;;;;4.97;2.10;;;23.20;99.90;;;;;;5157446;27;20482;-78
2022/07/01 12:28:28;;;;;;;4.18;1.88;;;23.00;99.90;;;;;;5157298;27;20482;-76
2022/07/01 12:31:20;;;;;;;4.65;2.08;;;22.80;99.90;;;;;;5156701;27;20145;-77
2022/07/01 12:33:50;;;;;;;6.30;1.85;;;22.70;99.90;;;;;;5152526;27;20051;-77
2022/07/01 12:36:16;;;;;;;6.05;1.70;;;22.50;99.90;;;;;;5157121;27;20039;-78
2022/07/01 12:38:42;;;;;;;8.20;2.07;;;22.20;99.90;;;;;;5157698;27;20042;-78
2022/07/01 12:41:50;;;;;;;6.63;1.73;;;22.20;99.90;;;;;;5156892;27;20167;-77
2022/07/01 12:44:27;;;;;;;4.95;1.40;;;22.40;99.90;;;;;;5053170;28;20067;-78
2022/07/01 12:46:53;;;;;;;3.55;1.50;;;22.60;99.90;;;;;;5053002;28;20059;-77
2022/07/01 12:49:24;;;;;;;4.00;1.40;;;22.90;99.90;;;;;;5094571;27;20050;-76
2022/07/01 12:51:51;;;;;;;4.07;1.15;;;22.80;99.90;;;;;;5157363;27;20041;-77
2022/07/01 12:54:34;;;;;;;4.63;1.40;;;23.00;99.90;;;;;;5156962;27;20047;-78